Time;durP1;ratioP1;P1;durP2;ratioP2;P2;SDS_P1;SDS_P2;PMS_P1;PMS_P2;Temp;Humidity;BMP_temperature;BMP_pressure;BME280_temperature;BME280_humidity;BME280_pressure;Samples;Min_cycle;Max_cycle;Signal;HPM_P1;HPM_P2
2021/09/01 00:04:29;;;;;;;6.90;4.00;;;;;;;19.59;58.78;102882.16;10586823;28;20039;-81
2021/09/01 00:09:29;;;;;;;3.95;3.55;;;;;;;19.58;58.39;102885.97;10585775;28;20046;-81
2021/09/01 00:14:30;;;;;;;14.25;4.68;;;;;;;19.56;58.63;102882.56;10534753;28;20074;-81
2021/09/01 00:19:30;;;;;;;6.82;3.47;;;;;;;19.55;58.66;102881.72;10568147;28;20034;-81
2021/09/01 00:24:31;;;;;;;9.40;4.63;;;;;;;19.58;58.88;102883.22;10586283;28;20070;-81
2021/09/01 00:29:31;;;;;;;6.05;3.78;;;;;;;19.54;58.79;102884.69;10585690;28;20042;-81
2021/09/01 00:34:32;;;;;;;3.40;2.92;;;;;;;19.09;59.96;102874.25;10585713;28;20495;-82
2021/09/01 00:39:32;;;;;;;10.73;4.85;;;;;;;19.19;60.63;102904.06;10584166;28;20036;-81
2021/09/01 00:44:33;;;;;;;8.35;3.75;;;;;;;18.62;60.58;102788.09;10585978;28;20043;-81
2021/09/01 00:49:33;;;;;;;8.38;3.92;;;;;;;19.08;58.52;102841.47;10584121;28;20051;-81
2021/09/01 00:54:34;;;;;;;6.13;3.97;;;;;;;19.41;58.32;102893.75;10566674;28;20119;-81
2021/09/01 00:59:37;;;;;;;5.97;2.65;;;;;;;19.45;57.90;102884.88;10566492;28;20039;-81
2021/09/01 01:04:38;;;;;;;11.23;3.90;;;;;;;19.42;57.70;102877.06;10584550;28;20038;-82
2021/09/01 01:09:39;;;;;;;5.45;3.78;;;;;;;19.23;57.80;102853.97;10582615;28;20114;-81
2021/09/01 01:14:41;;;;;;;9.05;4.25;;;;;;;19.21;57.67;102825.91;10565227;28;20027;-81
2021/09/01 01:19:42;;;;;;;6.80;4.00;;;;;;;19.39;57.40;102858.25;10565424;28;20028;-81
2021/09/01 01:24:57;;;;;;;9.60;3.58;;;;;;;19.26;58.82;102856.31;10548653;28;20032;-81
2021/09/01 01:30:14;;;;;;;13.20;4.10;;;;;;;17.95;57.37;102659.97;10567302;28;20024;-81
2021/09/01 01:35:36;;;;;;;5.95;2.72;;;;;;;19.28;59.68;102884.44;10567516;28;20464;-81
2021/09/01 01:40:37;;;;;;;7.35;3.40;;;;;;;19.30;57.26;102884.22;10582058;28;20433;-81
2021/09/01 01:45:42;;;;;;;4.85;3.58;;;;;;;19.24;58.07;102876.78;10582584;28;20063;-81
2021/09/01 01:50:43;;;;;;;4.50;3.05;;;;;;;18.68;57.43;102814.72;10564764;28;20463;-81
2021/09/01 01:55:44;;;;;;;13.50;3.88;;;;;;;19.08;56.87;102877.16;10547578;28;20096;-81
2021/09/01 02:00:44;;;;;;;5.13;3.28;;;;;;;19.01;56.99;102869.75;10564524;28;20413;-81
2021/09/01 02:05:45;;;;;;;3.70;2.85;;;;;;;18.86;56.95;102851.75;10564870;28;20039;-81
2021/09/01 02:10:45;;;;;;;16.52;4.78;;;;;;;18.59;56.95;102811.28;10579982;28;20043;-81
2021/09/01 02:15:46;;;;;;;12.45;3.38;;;;;;;18.53;56.77;102790.16;10582035;28;20035;-81
2021/09/01 02:20:46;;;;;;;6.93;2.85;;;;;;;19.04;57.03;102883.06;10582054;28;20035;-81
2021/09/01 02:25:46;;;;;;;6.40;2.30;;;;;;;18.99;57.52;102851.81;10563611;28;20043;-81
2021/09/01 02:30:47;;;;;;;4.20;3.10;;;;;;;19.17;57.22;102874.03;10563431;28;20075;-81
2021/09/01 02:35:48;;;;;;;10.98;3.65;;;;;;;19.18;56.87;102863.91;10581360;28;20386;-81
2021/09/01 02:40:48;;;;;;;5.63;2.80;;;;;;;19.19;56.94;102860.94;10580210;28;20044;-81
2021/09/01 02:45:48;;;;;;;6.80;4.28;;;;;;;19.28;56.81;102867.09;10562873;28;20052;-81
2021/09/01 02:50:49;;;;;;;5.13;3.58;;;;;;;19.27;56.84;102873.63;10581223;28;20114;-82
2021/09/01 02:55:49;;;;;;;8.23;2.72;;;;;;;19.29;57.24;102871.53;10581152;28;20110;-81
2021/09/01 03:00:50;;;;;;;7.28;3.97;;;;;;;19.26;57.19;102871.94;10562825;28;20070;-81
2021/09/01 03:05:51;;;;;;;9.95;3.72;;;;;;;19.27;57.09;102885.50;10580893;28;20067;-81
2021/09/01 03:10:51;;;;;;;8.27;3.92;;;;;;;19.28;57.22;102873.44;10562720;28;20121;-81
2021/09/01 03:15:51;;;;;;;11.57;3.42;;;;;;;19.22;57.20;102855.03;10562995;28;20460;-81
2021/09/01 03:20:52;;;;;;;10.27;4.55;;;;;;;19.30;57.16;102870.47;10562401;28;20028;-81
2021/09/01 03:25:52;;;;;;;9.43;4.25;;;;;;;19.28;57.39;102870.69;10581116;28;20411;-81
2021/09/01 03:30:52;;;;;;;3.10;2.65;;;;;;;19.15;57.35;102834.97;10562423;28;20114;-81
2021/09/01 03:35:53;;;;;;;4.82;3.38;;;;;;;19.29;57.47;102866.88;10566035;28;20126;-81
2021/09/01 03:40:53;;;;;;;12.85;4.50;;;;;;;19.31;57.63;102865.84;10568898;28;20122;-82
2021/09/01 03:45:55;;;;;;;8.88;2.83;;;;;;;19.29;57.55;102866.03;10588033;28;20079;-82
2021/09/01 03:50:55;;;;;;;8.90;4.80;;;;;;;19.27;57.67;102858.03;10586705;28;20031;-81
2021/09/01 03:55:55;;;;;;;8.60;3.92;;;;;;;19.19;57.63;102849.97;10587646;28;20379;-81
2021/09/01 04:00:56;;;;;;;12.70;3.78;;;;;;;19.01;58.36;102828.56;10587711;28;20245;-82
2021/09/01 04:05:57;;;;;;;5.50;4.28;;;;;;;19.18;57.47;102867.50;10585714;28;20042;-81
2021/09/01 04:10:58;;;;;;;11.45;4.72;;;;;;;19.10;57.77;102859.44;10568088;28;20036;-81
2021/09/01 04:15:59;;;;;;;10.07;3.47;;;;;;;19.11;57.59;102863.03;10568410;28;20055;-81
2021/09/01 04:20:59;;;;;;;10.25;4.03;;;;;;;19.19;57.73;102865.59;10569236;28;20031;-82
2021/09/01 04:26:00;;;;;;;5.85;3.05;;;;;;;18.99;57.77;102846.31;10571162;28;20032;-80
2021/09/01 04:31:00;;;;;;;5.03;3.28;;;;;;;18.75;57.99;102806.53;10567603;28;20062;-79
2021/09/01 04:36:00;;;;;;;4.28;3.75;;;;;;;19.20;58.04;102867.28;10480643;28;20117;-81
2021/09/01 04:41:01;;;;;;;10.80;2.92;;;;;;;18.99;57.86;102827.09;10525168;28;20146;-80
2021/09/01 04:46:01;;;;;;;3.38;3.08;;;;;;;19.21;57.86;102867.09;10523858;28;20048;-80
2021/09/01 04:51:02;;;;;;;15.02;4.30;;;;;;;18.83;57.96;102806.38;10541777;28;20036;-82
2021/09/01 04:56:02;;;;;;;10.85;5.55;;;;;;;19.20;58.19;102873.63;10542781;28;20035;-82
2021/09/01 05:01:03;;;;;;;18.45;3.72;;;;;;;19.21;58.21;102874.50;10508025;28;20031;-82
2021/09/01 05:06:03;;;;;;;10.25;3.13;;;;;;;19.21;58.19;102863.50;10524195;28;20020;-82
2021/09/01 05:11:05;;;;;;;11.30;3.20;;;;;;;19.11;58.54;102852.03;10541545;28;20136;-81
2021/09/01 05:16:05;;;;;;;5.13;4.35;;;;;;;18.64;58.59;102786.00;10524320;28;20119;-81
2021/09/01 05:21:06;;;;;;;16.27;4.10;;;;;;;19.25;58.31;102878.50;10523745;28;20028;-81
2021/09/01 05:26:06;;;;;;;10.05;4.20;;;;;;;19.26;58.49;102877.44;10523107;28;20115;-81
2021/09/01 05:31:07;;;;;;;4.43;3.53;;;;;;;18.85;58.25;102815.22;10540934;28;20105;-80
2021/09/01 05:36:08;;;;;;;3.80;3.40;;;;;;;19.27;58.44;102892.88;10523423;28;20027;-81
2021/09/01 05:41:08;;;;;;;8.82;3.20;;;;;;;19.17;58.38;102887.75;10540661;28;20036;-81
2021/09/01 05:46:08;;;;;;;13.82;3.65;;;;;;;19.43;58.18;102887.00;10522295;28;20052;-82
2021/09/01 05:51:09;;;;;;;8.40;4.32;;;;;;;19.49;58.08;102886.16;10505450;28;20064;-82
2021/09/01 05:56:10;;;;;;;10.00;4.20;;;;;;;19.55;58.07;102875.38;10505560;28;20028;-81
2021/09/01 06:01:10;;;;;;;7.28;3.97;;;;;;;19.52;58.58;102876.66;10521285;28;20035;-81
2021/09/01 06:06:11;;;;;;;13.40;4.32;;;;;;;19.55;58.23;102886.38;10521522;28;20039;-81
2021/09/01 06:11:11;;;;;;;4.55;3.47;;;;;;;19.68;58.14;102891.91;10520648;28;20384;-82
2021/09/01 06:16:11;;;;;;;9.60;3.85;;;;;;;19.81;58.05;102891.09;10521334;28;20392;-81
2021/09/01 06:21:12;;;;;;;13.63;4.05;;;;;;;19.91;57.83;102886.88;10521470;28;20042;-81
2021/09/01 06:26:12;;;;;;;9.52;4.18;;;;;;;20.07;57.62;102890.22;10522473;28;20032;-81
2021/09/01 06:31:13;;;;;;;7.88;3.40;;;;;;;20.16;57.63;102884.28;10539928;28;20487;-82
2021/09/01 06:36:14;;;;;;;6.30;2.72;;;;;;;20.24;57.27;102899.75;10520858;28;20391;-81
2021/09/01 06:41:15;;;;;;;5.13;2.90;;;;;;;19.81;56.17;102841.59;10538402;28;20359;-81
2021/09/01 06:46:15;;;;;;;12.88;4.25;;;;;;;20.15;57.02;102901.88;10538984;28;20052;-81
2021/09/01 06:51:16;;;;;;;6.13;3.55;;;;;;;20.24;56.88;102913.50;10523044;28;20379;-81
2021/09/01 06:56:16;;;;;;;4.53;2.80;;;;;;;20.26;57.16;102911.41;10538966;28;20143;-82
2021/09/01 07:01:17;;;;;;;13.95;4.45;;;;;;;20.25;57.55;102904.19;10520319;28;20036;-82
2021/09/01 07:06:17;;;;;;;6.47;4.40;;;;;;;19.92;57.86;102833.56;10538553;28;20055;-81
2021/09/01 07:11:17;;;;;;;7.75;3.53;;;;;;;20.36;57.47;102902.72;10523651;28;20032;-82
2021/09/01 07:16:18;;;;;;;11.23;4.28;;;;;;;20.03;56.78;102850.47;10547182;28;20088;-82
2021/09/01 07:21:18;;;;;;;5.57;3.08;;;;;;;20.20;56.61;102898.50;10528411;28;20111;-82
2021/09/01 07:26:19;;;;;;;5.35;4.07;;;;;;;20.30;56.36;102909.91;10521641;28;20477;-81
2021/09/01 07:31:19;;;;;;;12.80;3.10;;;;;;;20.40;56.69;102925.97;10520600;28;20028;-81
2021/09/01 07:36:23;;;;;;;4.85;3.15;;;;;;;20.45;56.57;102937.16;10536533;28;20036;-81
2021/09/01 07:41:23;;;;;;;10.38;2.63;;;;;;;19.93;56.64;102876.50;10519190;28;20382;-81
2021/09/01 07:46:24;;;;;;;7.93;3.05;;;;;;;20.27;56.96;102934.25;10536442;28;20074;-81
2021/09/01 07:51:30;;;;;;;9.48;3.03;;;;;;;20.28;57.10;102952.44;10536026;28;20051;-81
2021/09/01 07:56:30;;;;;;;8.77;2.75;;;;;;;20.34;56.94;102962.59;10518548;28;20036;-81
2021/09/01 08:01:31;;;;;;;20.58;2.97;;;;;;;20.42;57.28;102965.13;10535922;28;20040;-81
2021/09/01 08:06:31;;;;;;;5.47;2.60;;;;;;;20.39;57.40;102976.59;10518862;28;20036;-81
2021/09/01 08:11:32;;;;;;;12.15;3.35;;;;;;;20.29;57.90;102979.72;10515659;28;20130;-81
2021/09/01 08:16:32;;;;;;;15.55;3.50;;;;;;;20.20;58.83;102981.88;10516101;28;20032;-81
2021/09/01 08:21:32;;;;;;;6.72;3.90;;;;;;;20.32;58.74;102978.47;10515472;28;20036;-81
2021/09/01 08:26:33;;;;;;;4.90;3.33;;;;;;;20.65;58.69;102970.22;10516712;28;20043;-81
2021/09/01 08:31:36;;;;;;;5.30;3.67;;;;;;;20.79;58.47;102982.88;10519113;28;20055;-81
2021/09/01 08:36:37;;;;;;;7.03;2.88;;;;;;;20.87;58.44;102988.19;10502630;28;20032;-81
2021/09/01 08:41:37;;;;;;;17.98;3.75;;;;;;;20.93;58.33;102993.88;10521198;28;20028;-81
2021/09/01 08:46:38;;;;;;;5.78;2.58;;;;;;;20.45;59.50;102997.72;10506887;28;20130;-81
2021/09/01 08:51:39;;;;;;;2.28;2.05;;;;;;;19.51;62.06;103002.22;10505499;28;20032;-81
2021/09/01 08:56:39;;;;;;;2.90;1.95;;;;;;;19.16;62.96;102993.19;10540170;28;20106;-80
2021/09/01 09:01:41;;;;;;;3.95;2.92;;;;;;;19.76;61.83;103000.84;10523200;28;20032;-81
2021/09/01 09:06:48;;;;;;;8.30;2.03;;;;;;;19.24;63.32;102896.03;10520882;28;20043;-81
2021/09/01 09:11:52;;;;;;;2.55;1.58;;;;;;;20.08;62.54;102997.31;10538063;28;20372;-81
2021/09/01 09:17:10;;;;;;;1.75;1.55;;;;;;;21.10;61.91;102992.34;10524151;28;20036;-81
2021/09/01 09:22:11;;;;;;;2.10;1.85;;;;;;;22.25;57.24;102987.69;10540799;28;20043;-81
2021/09/01 09:27:13;;;;;;;10.18;1.60;;;;;;;22.52;56.77;102982.78;10504980;28;20028;-81
2021/09/01 09:32:14;;;;;;;3.63;2.05;;;;;;;22.52;55.74;102996.56;10519763;28;20119;-81
2021/09/01 09:37:14;;;;;;;5.28;1.42;;;;;;;22.48;54.05;102997.25;10519606;28;20449;-81
2021/09/01 09:42:32;;;;;;;9.20;2.05;;;;;;;22.46;59.91;102993.88;10520579;28;20491;-81
2021/09/01 09:47:45;;;;;;;2.45;2.15;;;;;;;23.75;56.70;102993.91;10522662;28;20048;-81
2021/09/01 09:52:46;;;;;;;2.60;2.40;;;;;;;24.26;55.17;102962.03;10540883;28;20032;-81
2021/09/01 09:57:50;;;;;;;2.90;1.73;;;;;;;24.86;51.38;102986.72;10522199;28;20507;-81
2021/09/01 10:02:50;;;;;;;3.25;2.45;;;;;;;24.87;49.32;102888.63;10522534;28;20028;-81
2021/09/01 10:07:51;;;;;;;2.97;2.30;;;;;;;26.44;49.49;102973.09;10540128;28;20036;-81
2021/09/01 10:12:51;;;;;;;1.83;1.67;;;;;;;27.09;45.85;102956.75;10539569;28;20032;-81
2021/09/01 10:17:54;;;;;;;3.05;1.52;;;;;;;27.01;46.34;102958.06;10539750;28;20387;-81
2021/09/01 10:23:01;;;;;;;1.90;1.75;;;;;;;26.35;51.44;102916.28;10521782;28;20097;-82
2021/09/01 10:28:35;;;;;;;8.63;2.03;;;;;;;27.15;51.96;102954.91;10505508;28;20039;-82
2021/09/01 10:33:36;;;;;;;2.00;1.80;;;;;;;28.95;44.44;102926.34;10539846;28;20062;-81
2021/09/01 10:38:36;;;;;;;1.73;1.55;;;;;;;29.39;43.34;102930.69;10504973;28;20108;-81
2021/09/01 10:43:37;;;;;;;1.92;1.83;;;;;;;29.95;41.73;102943.88;10538065;28;20060;-82
2021/09/01 10:48:54;;;;;;;1.55;1.23;;;;;;;29.53;43.37;102934.63;10512081;28;20047;-82
2021/09/01 10:53:55;;;;;;;1.35;1.20;;;;;;;29.29;43.16;102916.69;10529960;28;20035;-82
2021/09/01 10:58:55;;;;;;;2.78;1.95;;;;;;;28.37;43.44;102905.97;10512543;28;20488;-82
2021/09/01 11:04:02;;;;;;;1.77;1.67;;;;;;;27.27;44.70;102903.59;10529126;28;20032;-82
2021/09/01 11:09:03;;;;;;;1.27;0.95;;;;;;;26.23;45.37;102857.22;10512982;28;20068;-81
2021/09/01 11:14:04;;;;;;;1.38;1.27;;;;;;;25.97;46.62;102919.84;10546410;28;20082;-82
2021/09/01 11:19:06;;;;;;;1.17;0.95;;;;;;;25.57;48.47;102929.13;10545134;28;20031;-81
2021/09/01 11:24:07;;;;;;;1.95;1.83;;;;;;;25.45;48.31;102929.16;10522127;28;20035;-82
2021/09/01 11:29:08;;;;;;;1.88;1.67;;;;;;;25.32;49.08;102951.66;10506463;28;20047;-81
2021/09/01 11:34:38;;;;;;;3.25;1.60;;;;;;;25.26;52.20;102947.94;10522900;28;20046;-81
2021/09/01 11:39:40;;;;;;;2.80;2.00;;;;;;;24.99;55.58;102946.81;10538549;28;20138;-81
2021/09/01 11:44:41;;;;;;;3.83;1.70;;;;;;;24.96;50.79;102938.97;10542149;28;20055;-81
2021/09/01 11:49:42;;;;;;;1.98;1.75;;;;;;;25.20;50.17;102926.75;10507504;28;20032;-81
2021/09/01 11:54:43;;;;;;;9.38;3.25;;;;;;;25.05;50.81;102913.41;10540219;28;20447;-81
2021/09/01 11:59:43;;;;;;;3.53;2.15;;;;;;;25.73;49.71;102947.72;10518397;28;20044;-81
2021/09/01 12:05:08;;;;;;;1.95;1.67;;;;;;;25.75;55.30;102942.78;10501427;28;20058;-81
2021/09/01 12:10:09;;;;;;;3.72;3.17;;;;;;;25.93;49.65;102930.59;10500148;28;20126;-82
2021/09/01 12:15:12;;;;;;;3.03;2.55;;;;;;;25.99;48.77;102912.09;10519052;28;20040;-82
2021/09/01 12:20:13;;;;;;;3.13;2.45;;;;;;;26.03;51.77;102951.31;10517098;28;20059;-81
2021/09/01 12:25:14;;;;;;;3.35;1.60;;;;;;;25.32;48.76;102851.00;10519709;28;20035;-81
2021/09/01 12:31:14;;;;;;;3.25;1.80;;;;;;;25.06;52.65;102859.63;10539156;28;20070;-81
2021/09/01 12:36:07;;;;;;;1.92;1.83;;;;;;;25.01;49.85;102947.38;10536394;28;20040;-81
2021/09/01 12:41:41;;;;;;;1.55;1.38;;;;;;;24.55;54.31;102946.41;10517715;28;20063;-82
2021/09/01 12:46:42;;;;;;;1.65;1.00;;;;;;;23.94;50.95;102859.09;10533229;28;20047;-81
2021/09/01 12:51:43;;;;;;;5.15;1.88;;;;;;;24.14;51.83;102917.72;10534937;28;20032;-80
2021/09/01 12:56:43;;;;;;;2.50;1.67;;;;;;;24.31;52.74;102923.34;10536866;28;20170;-80
2021/09/01 13:01:44;;;;;;;1.95;1.52;;;;;;;23.97;52.47;102928.66;10520170;28;20465;-80
2021/09/01 13:06:45;;;;;;;11.85;2.78;;;;;;;23.50;53.20;102928.50;10520597;28;20040;-80
2021/09/01 13:11:49;;;;;;;5.53;2.55;;;;;;;22.99;56.60;102869.03;10505152;28;20123;-81
2021/09/01 13:16:49;;;;;;;1.73;1.63;;;;;;;23.08;53.61;102881.44;10520456;28;20035;-81
2021/09/01 13:21:50;;;;;;;2.22;1.98;;;;;;;23.33;54.24;102928.31;10534735;28;20039;-81
2021/09/01 13:26:50;;;;;;;1.95;1.85;;;;;;;23.10;53.71;102884.84;10517751;28;20044;-81
2021/09/01 13:31:51;;;;;;;10.27;2.38;;;;;;;23.24;56.80;102928.88;10536136;28;20035;-80
2021/09/01 13:37:00;;;;;;;2.65;2.40;;;;;;;22.83;56.14;102916.59;10519125;28;20092;-81
2021/09/01 13:42:01;;;;;;;4.10;3.00;;;;;;;22.81;55.45;102891.97;10514316;28;20533;-81
2021/09/01 13:47:01;;;;;;;9.73;2.78;;;;;;;23.10;55.01;102926.28;10518740;28;20044;-81
2021/09/01 13:52:02;;;;;;;3.22;2.70;;;;;;;23.39;54.97;102918.25;10517113;28;20032;-81
2021/09/01 13:57:05;;;;;;;24.40;5.50;;;;;;;23.28;55.80;102925.41;10499718;28;20432;-81
2021/09/01 14:02:05;;;;;;;9.88;4.25;;;;;;;22.68;55.12;102853.47;10533711;28;20040;-81
2021/09/01 14:07:06;;;;;;;18.83;4.97;;;;;;;23.47;53.77;102912.38;10517241;28;20048;-80
2021/09/01 14:12:10;;;;;;;19.55;4.70;;;;;;;23.44;54.01;102923.91;10517817;28;20119;-81
2021/09/01 14:17:11;;;;;;;9.90;5.55;;;;;;;23.11;54.45;102914.16;10520471;28;20071;-81
2021/09/01 14:22:16;;;;;;;7.65;6.05;;;;;;;23.11;55.47;102913.31;10538784;28;20455;-81
2021/09/01 14:27:17;;;;;;;5.70;5.13;;;;;;;23.10;56.59;102908.84;10505651;28;20028;-81
2021/09/01 14:32:23;;;;;;;8.07;4.80;;;;;;;22.67;55.40;102840.72;10527302;28;20058;-81
2021/09/01 14:37:27;;;;;;;6.03;4.50;;;;;;;22.62;55.65;102915.13;10509017;28;20175;-80
2021/09/01 14:42:28;;;;;;;4.93;4.00;;;;;;;22.53;56.78;102909.09;10519463;28;20047;-81
2021/09/01 14:47:28;;;;;;;4.68;4.28;;;;;;;22.43;55.84;102911.50;10539421;28;20074;-81
2021/09/01 14:52:37;;;;;;;7.60;5.60;;;;;;;22.27;55.77;102882.56;10538933;28;20040;-81
2021/09/01 14:57:41;;;;;;;7.00;5.78;;;;;;;22.43;56.11;102894.94;10522205;28;20036;-81
2021/09/01 15:02:41;;;;;;;6.97;5.20;;;;;;;22.67;55.93;102902.31;10518878;28;20040;-81
2021/09/01 15:07:42;;;;;;;7.97;6.15;;;;;;;22.88;55.58;102903.78;10516241;28;20085;-81
2021/09/01 15:12:43;;;;;;;12.93;5.63;;;;;;;22.80;54.66;102906.84;10533771;28;20486;-81
2021/09/01 15:17:43;;;;;;;8.63;6.55;;;;;;;23.01;55.04;102890.91;10533974;28;20035;-81
2021/09/01 15:22:44;;;;;;;7.53;6.80;;;;;;;23.04;55.50;102890.44;10516537;28;20028;-81
2021/09/01 15:27:45;;;;;;;8.93;6.13;;;;;;;23.13;54.77;102884.38;10536361;28;20029;-81
2021/09/01 15:32:46;;;;;;;10.43;7.28;;;;;;;22.68;54.86;102823.06;10521181;28;20551;-81
2021/09/01 15:37:46;;;;;;;12.82;8.23;;;;;;;22.97;55.12;102858.22;10543020;28;20128;-81
2021/09/01 15:42:48;;;;;;;8.32;6.75;;;;;;;22.90;55.92;102860.19;10507118;28;20048;-81
2021/09/01 15:47:55;;;;;;;12.88;7.53;;;;;;;22.36;56.78;102786.53;10524613;28;20036;-81
2021/09/01 15:52:56;;;;;;;9.00;8.20;;;;;;;22.80;54.73;102864.56;10524500;28;20024;-82
2021/09/01 15:57:56;;;;;;;12.85;7.68;;;;;;;22.76;54.86;102855.91;10541847;28;20466;-81
2021/09/01 16:02:57;;;;;;;14.77;8.32;;;;;;;22.61;56.18;102819.56;10542582;28;20042;-81
2021/09/01 16:07:57;;;;;;;18.60;9.32;;;;;;;22.11;57.61;102820.50;10522349;28;20036;-80
2021/09/01 16:13:01;;;;;;;10.75;8.77;;;;;;;21.99;57.93;102798.38;10522066;28;20075;-81
2021/09/01 16:18:18;;;;;;;15.63;9.65;;;;;;;21.96;58.17;102831.94;10506399;28;20052;-81
2021/09/01 16:23:19;;;;;;;;;;;;;;;21.84;59.67;102861.31;10526322;28;20066;-81
2021/09/01 16:28:19;;;;;;;19.83;9.38;;;;;;;21.93;57.50;102859.97;10541835;28;20012;-82
2021/09/01 16:33:20;;;;;;;22.92;10.05;;;;;;;21.90;57.57;102854.91;10540565;28;20044;-81
2021/09/01 16:38:25;;;;;;;19.15;13.65;;;;;;;21.89;57.41;102849.59;10523617;28;20119;-81
2021/09/01 16:43:30;;;;;;;18.27;11.98;;;;;;;21.31;59.04;102749.56;10504072;28;20084;-82
2021/09/01 16:48:31;;;;;;;11.35;8.20;;;;;;;21.49;58.14;102816.84;10520886;28;20050;-81
2021/09/01 16:53:43;;;;;;;19.25;9.43;;;;;;;21.02;61.62;102783.22;10537791;28;20127;-80
2021/09/01 16:58:49;;;;;;;14.50;9.38;;;;;;;21.43;60.05;102843.38;10517562;28;20101;-80
2021/09/01 17:04:01;;;;;;;18.93;8.87;;;;;;;21.30;60.72;102841.53;10536611;28;20067;-81
2021/09/01 17:09:03;;;;;;;12.90;9.82;;;;;;;21.40;59.09;102832.81;10520247;28;20024;-80
2021/09/01 17:14:03;;;;;;;12.88;8.80;;;;;;;21.26;58.36;102823.78;10535524;28;20043;-81
2021/09/01 17:19:04;;;;;;;14.52;10.07;;;;;;;21.35;57.98;102850.03;10517542;28;20408;-81
2021/09/01 17:24:07;;;;;;;28.88;8.73;;;;;;;21.26;58.64;102858.75;10537201;28;20039;-81
2021/09/01 17:29:09;;;;;;;10.45;7.18;;;;;;;20.95;58.78;102824.59;10518361;28;20043;-81
2021/09/01 17:34:10;;;;;;;9.95;8.27;;;;;;;20.69;58.01;102780.69;10502157;28;20032;-81
2021/09/01 17:39:14;;;;;;;9.38;7.35;;;;;;;20.87;58.91;102852.41;10517272;28;20077;-81
2021/09/01 17:44:16;;;;;;;13.25;7.13;;;;;;;20.80;58.90;102852.41;10517585;28;20067;-81
2021/09/01 17:49:17;;;;;;;9.48;6.07;;;;;;;20.33;58.96;102784.81;10518409;28;20055;-80
2021/09/01 17:54:20;;;;;;;12.50;6.90;;;;;;;20.80;58.99;102862.56;10503071;28;20074;-81
2021/09/01 17:59:23;;;;;;;10.13;7.32;;;;;;;20.48;59.48;102815.66;10534278;28;20477;-81
2021/09/01 18:04:23;;;;;;;8.88;7.10;;;;;;;20.64;58.95;102845.50;10535176;28;20036;-79
2021/09/01 18:09:24;;;;;;;11.75;7.30;;;;;;;20.58;59.69;102845.50;10516747;28;20036;-81
2021/09/01 18:14:24;;;;;;;23.98;5.68;;;;;;;20.40;60.47;102851.69;10516197;28;20036;-81
2021/09/01 18:19:25;;;;;;;8.68;6.32;;;;;;;20.29;60.13;102833.91;10516344;28;20063;-81
2021/09/01 18:24:25;;;;;;;9.82;6.75;;;;;;;19.96;60.24;102790.81;10516206;28;20039;-81
2021/09/01 18:29:26;;;;;;;12.80;7.80;;;;;;;20.12;60.63;102840.94;10532349;28;20119;-81
2021/09/01 18:34:27;;;;;;;12.45;7.03;;;;;;;20.01;60.86;102820.44;10534794;28;20036;-81
2021/09/01 18:39:30;;;;;;;13.25;7.88;;;;;;;20.19;61.17;102861.03;10533594;28;20161;-81
2021/09/01 18:44:31;;;;;;;11.40;7.78;;;;;;;19.97;62.32;102864.03;10533668;28;20068;-80
2021/09/01 18:49:32;;;;;;;8.90;7.32;;;;;;;19.95;62.15;102855.13;10533625;28;20479;-81
2021/09/01 18:54:33;;;;;;;18.48;7.60;;;;;;;20.10;61.64;102859.56;10497492;28;20119;-81
2021/09/01 18:59:47;;;;;;;17.30;9.25;;;;;;;19.98;61.64;102868.47;10530791;28;20165;-81
2021/09/01 19:04:50;;;;;;;15.95;8.07;;;;;;;20.12;61.28;102876.69;10478220;28;20448;-80
2021/09/01 19:10:03;;;;;;;8.40;6.45;;;;;;;20.00;61.80;102890.25;10506423;28;20044;-81
2021/09/01 19:15:10;;;;;;;8.07;7.10;;;;;;;19.47;61.82;102813.25;10522353;28;20092;-81
2021/09/01 19:20:12;;;;;;;12.35;6.93;;;;;;;19.50;61.80;102821.91;10522077;28;20036;-81
2021/09/01 19:25:13;;;;;;;8.88;6.22;;;;;;;19.95;61.93;102879.88;10522759;28;20518;-81
2021/09/01 19:30:19;;;;;;;8.07;6.55;;;;;;;19.48;61.87;102832.25;10541423;28;20096;-82
2021/09/01 19:41:37;;;;;;;17.48;7.45;;;;;;;18.29;63.35;102684.56;10473418;28;20064;-81
2021/09/01 19:46:38;;;;;;;4.32;3.95;;;;;;;19.41;63.03;102847.91;10505600;28;20060;-81
2021/09/01 19:51:38;;;;;;;7.90;5.82;;;;;;;19.35;63.11;102831.41;10504944;28;20531;-82
2021/09/01 19:56:39;;;;;;;5.25;4.70;;;;;;;19.49;63.32;102855.91;10521570;28;20391;-82
2021/09/01 20:01:40;;;;;;;7.97;5.32;;;;;;;19.80;62.99;102900.41;10522631;28;20020;-83
2021/09/01 20:06:57;;;;;;;5.85;4.63;;;;;;;19.78;63.32;102902.50;10539612;28;20062;-82
2021/09/01 20:11:57;;;;;;;10.63;4.97;;;;;;;19.68;62.81;102898.25;10503458;28;20039;-81
2021/09/01 20:16:58;;;;;;;11.60;5.00;;;;;;;19.72;62.51;102902.31;10522878;28;20078;-81
2021/09/01 20:21:59;;;;;;;10.55;4.78;;;;;;;19.44;62.98;102872.22;10523401;28;20131;-82
2021/09/01 20:27:00;;;;;;;11.50;5.22;;;;;;;19.36;62.86;102855.91;10536910;28;20496;-82
2021/09/01 20:32:01;;;;;;;14.10;3.75;;;;;;;19.59;63.54;102927.00;10520613;28;20378;-81
2021/09/01 20:37:01;;;;;;;5.15;3.75;;;;;;;19.63;63.21;102914.53;10539017;28;20397;-82
2021/09/01 20:42:02;;;;;;;10.82;4.47;;;;;;;19.64;63.10;102924.47;10518054;28;20020;-80
2021/09/01 20:47:03;;;;;;;4.82;3.60;;;;;;;19.58;63.08;102914.28;10519331;28;20470;-82
2021/09/01 20:52:08;;;;;;;3.65;3.13;;;;;;;19.57;63.19;102911.75;10505461;28;20048;-81
2021/09/01 20:57:56;;;;;;;2.92;2.22;;;;;;;19.39;63.12;102882.13;10535949;28;20051;-81
2021/09/01 21:03:05;;;;;;;4.07;3.50;;;;;;;19.18;63.34;102848.28;10517202;28;20032;-81
2021/09/01 21:08:06;;;;;;;10.20;3.42;;;;;;;19.46;63.63;102911.31;10523338;28;20044;-81
2021/09/01 21:13:09;;;;;;;2.17;2.08;;;;;;;19.42;64.14;102903.69;10522784;28;20028;-80
2021/09/01 21:18:22;;;;;;;2.45;2.25;;;;;;;18.67;63.81;102787.50;10541947;28;20036;-81
2021/09/01 21:23:23;;;;;;;2.10;2.00;;;;;;;19.38;63.74;102902.41;10522507;28;20104;-81
2021/09/01 21:28:24;;;;;;;6.45;2.70;;;;;;;19.30;64.17;102908.94;10505205;28;20394;-81
2021/09/01 21:33:25;;;;;;;5.97;3.38;;;;;;;19.29;64.41;102926.47;10522169;28;20044;-81
2021/09/01 21:38:25;;;;;;;3.30;2.83;;;;;;;19.30;64.10;102911.69;10521069;28;20024;-82
2021/09/01 21:43:28;;;;;;;4.28;3.53;;;;;;;19.26;64.13;102919.50;10537961;28;20032;-82
2021/09/01 21:48:32;;;;;;;3.33;2.97;;;;;;;19.22;64.35;102912.72;10503493;28;20048;-82
2021/09/01 21:53:34;;;;;;;6.38;3.95;;;;;;;19.18;64.16;102933.44;10537372;28;20044;-83
2021/09/01 21:58:35;;;;;;;4.10;3.80;;;;;;;19.11;64.24;102901.47;10518673;28;20452;-81
2021/09/01 22:03:36;;;;;;;5.72;4.40;;;;;;;19.14;64.11;102901.91;10535795;28;20044;-81
2021/09/01 22:08:36;;;;;;;4.60;4.15;;;;;;;19.23;63.52;102905.31;10532871;28;20043;-81
2021/09/01 22:13:37;;;;;;;4.68;4.10;;;;;;;19.27;63.18;102899.22;10534308;28;20044;-81
2021/09/01 22:18:37;;;;;;;4.95;4.35;;;;;;;19.23;63.67;102914.41;10535369;28;20507;-81
2021/09/01 22:23:39;;;;;;;4.00;3.63;;;;;;;19.25;63.70;102915.06;10534824;28;20122;-81
2021/09/01 22:28:41;;;;;;;11.45;5.40;;;;;;;19.24;63.47;102896.91;10535053;28;20038;-82
2021/09/01 22:33:42;;;;;;;7.95;4.75;;;;;;;19.39;63.45;102917.84;10535458;28;20136;-82
2021/09/01 22:38:46;;;;;;;9.18;5.38;;;;;;;19.29;63.14;102899.84;10516836;28;20123;-81
2021/09/01 22:43:49;;;;;;;10.82;5.97;;;;;;;19.10;63.94;102894.31;10531433;28;20039;-82
2021/09/01 22:48:50;;;;;;;6.63;5.72;;;;;;;18.85;64.77;102867.38;10550344;28;20064;-81
2021/09/01 22:53:50;;;;;;;8.27;3.92;;;;;;;19.17;64.16;102906.16;10529157;28;20458;-81
2021/09/01 22:59:12;;;;;;;6.50;4.55;;;;;;;19.13;63.88;102900.22;10527941;28;20036;-82
2021/09/01 23:04:12;;;;;;;11.45;6.15;;;;;;;18.92;64.01;102868.28;10547206;28;20032;-82
2021/09/01 23:09:13;;;;;;;8.73;5.82;;;;;;;19.30;63.90;102917.16;10528082;28;20031;-81
2021/09/01 23:14:23;;;;;;;6.95;5.13;;;;;;;19.16;63.72;102888.81;10527887;28;20486;-81